sensor_id;sensor_type;location;lat;lon;timestamp;temperature;humidity
27870;DHT22;15225;50.730;4.244;2024-03-25T16:42:52;12.60;1.00
27870;DHT22;15225;50.730;4.244;2024-03-25T16:45:17;12.40;1.00
27870;DHT22;15225;50.730;4.244;2024-03-25T16:47:43;12.40;1.00
27870;DHT22;15225;50.730;4.244;2024-03-25T16:50:09;12.50;1.00
27870;DHT22;15225;50.730;4.244;2024-03-25T16:52:35;12.50;1.00
27870;DHT22;15225;50.730;4.244;2024-03-25T16:55:01;12.50;1.20
27870;DHT22;15225;50.730;4.244;2024-03-25T16:57:27;12.50;11.50
27870;DHT22;15225;50.730;4.244;2024-03-25T16:59:53;12.40;15.00
27870;DHT22;15225;50.730;4.244;2024-03-25T17:02:18;12.50;13.20
27870;DHT22;15225;50.730;4.244;2024-03-25T17:04:44;12.30;8.30
27870;DHT22;15225;50.730;4.244;2024-03-25T17:07:10;12.20;24.30
27870;DHT22;15225;50.730;4.244;2024-03-25T17:09:35;12.10;69.40
27870;DHT22;15225;50.730;4.244;2024-03-25T17:12:01;12.10;90.60
27870;DHT22;15225;50.730;4.244;2024-03-25T17:14:27;12.00;61.30
27870;DHT22;15225;50.730;4.244;2024-03-25T17:16:53;12.00;45.90
27870;DHT22;15225;50.730;4.244;2024-03-25T17:19:19;12.00;29.40
27870;DHT22;15225;50.730;4.244;2024-03-25T17:21:45;12.00;3.60
27870;DHT22;15225;50.730;4.244;2024-03-25T17:24:11;11.90;1.00
27870;DHT22;15225;50.730;4.244;2024-03-25T17:26:37;11.80;1.00
27870;DHT22;15225;50.730;4.244;2024-03-25T17:29:03;11.80;1.00
27870;DHT22;15225;50.730;4.244;2024-03-25T17:31:29;11.80;1.00
27870;DHT22;15225;50.730;4.244;2024-03-25T17:33:54;11.80;1.00
27870;DHT22;15225;50.730;4.244;2024-03-25T17:36:20;11.80;1.00
27870;DHT22;15225;50.730;4.244;2024-03-25T17:38:46;11.90;1.00
27870;DHT22;15225;50.730;4.244;2024-03-25T17:41:12;11.80;1.00
27870;DHT22;15225;50.730;4.244;2024-03-25T17:43:38;11.70;1.00
27870;DHT22;15225;50.730;4.244;2024-03-25T17:46:04;11.60;1.00
27870;DHT22;15225;50.730;4.244;2024-03-25T17:48:29;11.50;1.00
27870;DHT22;15225;50.730;4.244;2024-03-25T17:50:57;11.50;1.00
27870;DHT22;15225;50.730;4.244;2024-03-25T17:53:27;11.40;9.00
27870;DHT22;15225;50.730;4.244;2024-03-25T17:55:53;11.50;6.00
27870;DHT22;15225;50.730;4.244;2024-03-25T17:58:19;11.40;11.40
27870;DHT22;15225;50.730;4.244;2024-03-25T18:00:46;11.40;11.70
27870;DHT22;15225;50.730;4.244;2024-03-25T18:03:11;11.30;20.70
27870;DHT22;15225;50.730;4.244;2024-03-25T18:05:37;11.40;31.10
27870;DHT22;15225;50.730;4.244;2024-03-25T18:08:03;11.50;24.90
27870;DHT22;15225;50.730;4.244;2024-03-25T18:10:29;11.50;22.80
27870;DHT22;15225;50.730;4.244;2024-03-25T18:12:56;11.60;16.00
27870;DHT22;15225;50.730;4.244;2024-03-25T18:15:21;11.50;18.10
27870;DHT22;15225;50.730;4.244;2024-03-25T18:17:47;11.20;37.00
27870;DHT22;15225;50.730;4.244;2024-03-25T18:20:14;11.40;57.60
27870;DHT22;15225;50.730;4.244;2024-03-25T18:22:39;11.40;44.70
27870;DHT22;15225;50.730;4.244;2024-03-25T18:25:05;11.60;46.60
27870;DHT22;15225;50.730;4.244;2024-03-25T18:27:32;11.70;33.50
27870;DHT22;15225;50.730;4.244;2024-03-25T18:29:58;11.40;55.30
27870;DHT22;15225;50.730;4.244;2024-03-25T18:32:23;11.20;96.80
27870;DHT22;15225;50.730;4.244;2024-03-25T18:34:49;11.00;99.90
27870;DHT22;15225;50.730;4.244;2024-03-25T18:37:15;11.00;99.90
27870;DHT22;15225;50.730;4.244;2024-03-25T18:39:42;11.00;99.90
27870;DHT22;15225;50.730;4.244;2024-03-25T18:42:07;11.10;99.90
27870;DHT22;15225;50.730;4.244;2024-03-25T18:44:33;11.00;99.90
27870;DHT22;15225;50.730;4.244;2024-03-25T18:46:59;11.00;99.90
27870;DHT22;15225;50.730;4.244;2024-03-25T18:49:24;10.80;99.90
27870;DHT22;15225;50.730;4.244;2024-03-25T18:51:50;10.70;99.90
27870;DHT22;15225;50.730;4.244;2024-03-25T18:54:16;10.70;99.90
27870;DHT22;15225;50.730;4.244;2024-03-25T18:56:41;10.70;99.90
27870;DHT22;15225;50.730;4.244;2024-03-25T18:59:07;10.60;99.90
27870;DHT22;15225;50.730;4.244;2024-03-25T19:01:34;10.50;99.90
27870;DHT22;15225;50.730;4.244;2024-03-25T19:03:59;10.50;99.90
27870;DHT22;15225;50.730;4.244;2024-03-25T19:06:25;10.40;99.90
27870;DHT22;15225;50.730;4.244;2024-03-25T19:08:51;10.30;99.90
27870;DHT22;15225;50.730;4.244;2024-03-25T19:11:16;10.40;99.90
27870;DHT22;15225;50.730;4.244;2024-03-25T19:13:42;10.40;99.90
27870;DHT22;15225;50.730;4.244;2024-03-25T19:16:07;10.40;99.90
27870;DHT22;15225;50.730;4.244;2024-03-25T19:18:33;10.40;99.90
27870;DHT22;15225;50.730;4.244;2024-03-25T19:20:59;10.30;99.90
27870;DHT22;15225;50.730;4.244;2024-03-25T19:23:24;10.30;99.90
27870;DHT22;15225;50.730;4.244;2024-03-25T19:25:50;10.30;99.90
27870;DHT22;15225;50.730;4.244;2024-03-25T19:28:16;10.30;99.90
27870;DHT22;15225;50.730;4.244;2024-03-25T19:30:42;10.40;99.90
27870;DHT22;15225;50.730;4.244;2024-03-25T19:33:08;10.50;99.90
27870;DHT22;15225;50.730;4.244;2024-03-25T19:35:33;10.50;99.90
27870;DHT22;15225;50.730;4.244;2024-03-25T19:37:59;10.60;99.90
27870;DHT22;15225;50.730;4.244;2024-03-25T19:40:25;10.40;99.90
27870;DHT22;15225;50.730;4.244;2024-03-25T19:42:51;10.60;99.90
27870;DHT22;15225;50.730;4.244;2024-03-25T19:45:16;10.40;99.90
27870;DHT22;15225;50.730;4.244;2024-03-25T19:47:44;10.40;99.90
27870;DHT22;15225;50.730;4.244;2024-03-25T19:50:10;10.20;99.90
27870;DHT22;15225;50.730;4.244;2024-03-25T19:52:37;10.20;99.90
27870;DHT22;15225;50.730;4.244;2024-03-25T19:55:03;10.00;1.00
27870;DHT22;15225;50.730;4.244;2024-03-25T19:57:29;9.90;1.00
27870;DHT22;15225;50.730;4.244;2024-03-25T19:59:54;9.80;1.00
27870;DHT22;15225;50.730;4.244;2024-03-25T20:02:21;9.80;1.00
27870;DHT22;15225;50.730;4.244;2024-03-25T20:04:47;9.80;1.00
27870;DHT22;15225;50.730;4.244;2024-03-25T20:07:15;9.70;1.00
27870;DHT22;15225;50.730;4.244;2024-03-25T20:09:41;9.80;12.90
27870;DHT22;15225;50.730;4.244;2024-03-25T20:12:08;9.70;24.70
27870;DHT22;15225;50.730;4.244;2024-03-25T20:14:33;9.70;75.80
27870;DHT22;15225;50.730;4.244;2024-03-25T20:16:59;9.70;58.80
27870;DHT22;15225;50.730;4.244;2024-03-25T20:19:25;9.80;69.10
27870;DHT22;15225;50.730;4.244;2024-03-25T20:21:52;9.80;64.70
27870;DHT22;15225;50.730;4.244;2024-03-25T20:24:19;10.00;66.10
27870;DHT22;15225;50.730;4.244;2024-03-25T20:26:45;10.00;24.20
27870;DHT22;15225;50.730;4.244;2024-03-25T20:29:11;10.00;46.10
27870;DHT22;15225;50.730;4.244;2024-03-25T20:31:38;10.00;51.10
27870;DHT22;15225;50.730;4.244;2024-03-25T20:34:04;10.10;79.10
27870;DHT22;15225;50.730;4.244;2024-03-25T20:36:30;10.10;56.30
27870;DHT22;15225;50.730;4.244;2024-03-25T20:38:56;10.00;97.00
27870;DHT22;15225;50.730;4.244;2024-03-25T20:41:22;9.90;99.90
27870;DHT22;15225;50.730;4.244;2024-03-25T20:43:47;10.00;99.90
27870;DHT22;15225;50.730;4.244;2024-03-25T20:46:13;10.10;99.90
27870;DHT22;15225;50.730;4.244;2024-03-25T20:48:41;10.30;99.90
27870;DHT22;15225;50.730;4.244;2024-03-25T20:51:07;10.10;52.10
27870;DHT22;15225;50.730;4.244;2024-03-25T20:53:33;10.10;99.90
27870;DHT22;15225;50.730;4.244;2024-03-25T20:55:59;10.10;96.90
27870;DHT22;15225;50.730;4.244;2024-03-25T20:58:25;10.20;46.10
27870;DHT22;15225;50.730;4.244;2024-03-25T21:00:50;10.10;1.00
27870;DHT22;15225;50.730;4.244;2024-03-25T21:03:16;9.90;15.60
27870;DHT22;15225;50.730;4.244;2024-03-25T21:05:55;10.00;8.10
27870;DHT22;15225;50.730;4.244;2024-03-25T21:08:21;9.90;11.80
27870;DHT22;15225;50.730;4.244;2024-03-25T21:10:47;10.00;1.00
27870;DHT22;15225;50.730;4.244;2024-03-25T21:13:13;10.10;1.00
27870;DHT22;15225;50.730;4.244;2024-03-25T21:15:38;10.00;1.00
27870;DHT22;15225;50.730;4.244;2024-03-25T21:18:04;10.00;1.00
27870;DHT22;15225;50.730;4.244;2024-03-25T21:20:30;10.10;1.00
27870;DHT22;15225;50.730;4.244;2024-03-25T21:22:56;10.00;1.00
27870;DHT22;15225;50.730;4.244;2024-03-25T21:25:22;10.00;1.00
27870;DHT22;15225;50.730;4.244;2024-03-25T21:27:48;10.00;1.00
27870;DHT22;15225;50.730;4.244;2024-03-25T21:30:14;10.00;1.00
27870;DHT22;15225;50.730;4.244;2024-03-25T21:32:39;9.90;1.00
27870;DHT22;15225;50.730;4.244;2024-03-25T21:35:05;9.90;1.00
27870;DHT22;15225;50.730;4.244;2024-03-25T21:37:31;9.90;1.00
27870;DHT22;15225;50.730;4.244;2024-03-25T21:39:57;10.00;1.00
27870;DHT22;15225;50.730;4.244;2024-03-25T21:42:23;9.80;1.00
27870;DHT22;15225;50.730;4.244;2024-03-25T21:44:50;9.90;1.00
27870;DHT22;15225;50.730;4.244;2024-03-25T21:47:17;9.70;1.00
27870;DHT22;15225;50.730;4.244;2024-03-25T21:49:43;9.60;1.00
27870;DHT22;15225;50.730;4.244;2024-03-25T21:52:10;9.50;1.00
27870;DHT22;15225;50.730;4.244;2024-03-25T21:54:36;9.50;1.00
27870;DHT22;15225;50.730;4.244;2024-03-25T21:57:02;9.50;1.00
27870;DHT22;15225;50.730;4.244;2024-03-25T21:59:27;9.40;1.00
27870;DHT22;15225;50.730;4.244;2024-03-25T22:01:53;9.30;1.00
27870;DHT22;15225;50.730;4.244;2024-03-25T22:04:19;9.30;1.00
27870;DHT22;15225;50.730;4.244;2024-03-25T22:06:45;9.30;1.00
27870;DHT22;15225;50.730;4.244;2024-03-25T22:09:10;9.30;1.00
27870;DHT22;15225;50.730;4.244;2024-03-25T22:11:36;9.40;1.00
27870;DHT22;15225;50.730;4.244;2024-03-25T22:14:02;9.40;1.00
27870;DHT22;15225;50.730;4.244;2024-03-25T22:16:34;9.40;1.00
27870;DHT22;15225;50.730;4.244;2024-03-25T22:18:59;9.30;1.00
27870;DHT22;15225;50.730;4.244;2024-03-25T22:21:25;9.20;1.00
27870;DHT22;15225;50.730;4.244;2024-03-25T22:23:51;9.20;1.00
27870;DHT22;15225;50.730;4.244;2024-03-25T22:26:17;9.20;1.00
27870;DHT22;15225;50.730;4.244;2024-03-25T22:28:43;9.20;1.00
27870;DHT22;15225;50.730;4.244;2024-03-25T22:31:08;9.10;1.00
27870;DHT22;15225;50.730;4.244;2024-03-25T22:33:34;9.10;1.90
27870;DHT22;15225;50.730;4.244;2024-03-25T22:36:00;9.20;1.00
27870;DHT22;15225;50.730;4.244;2024-03-25T22:38:29;9.20;1.00
